Time;durP1;ratioP1;P1;durP2;ratioP2;P2;SDS_P1;SDS_P2;PMS_P1;PMS_P2;Temp;Humidity;BMP_temperature;BMP_pressure;BME280_temperature;BME280_humidity;BME280_pressure;Samples;Min_cycle;Max_cycle;Signal;HPM_P1;HPM_P2
2022/05/30 00:01:47;;;;;;;4.25;1.80;;;;;;;9.65;74.72;99615.09;5030078;28;20575;-60
2022/05/30 00:04:13;;;;;;;4.97;1.90;;;;;;;9.61;75.22;99619.56;5028254;28;20037;-60
2022/05/30 00:06:38;;;;;;;3.33;2.22;;;;;;;9.46;75.00;99598.41;5025634;28;20076;-59
2022/05/30 00:09:04;;;;;;;3.10;1.92;;;;;;;9.51;75.67;99602.56;5044494;28;20044;-60
2022/05/30 00:11:31;;;;;;;2.65;1.85;;;;;;;9.48;75.52;99604.41;5017942;28;20044;-58
2022/05/30 00:13:56;;;;;;;7.43;2.30;;;;;;;9.54;75.66;99617.19;5048887;28;20051;-60
2022/05/30 00:16:23;;;;;;;4.78;2.08;;;;;;;9.52;75.61;99613.81;5036670;28;20037;-58
2022/05/30 00:18:50;;;;;;;3.08;2.22;;;;;;;9.45;76.01;99605.34;5048913;28;20045;-59
2022/05/30 00:21:22;;;;;;;5.20;2.08;;;;;;;9.51;75.71;99612.09;5035756;28;20045;-59
2022/05/30 00:23:49;;;;;;;4.68;1.85;;;;;;;9.49;76.22;99619.94;5043523;28;20045;-60
2022/05/30 00:26:15;;;;;;;6.60;2.10;;;;;;;9.47;76.32;99623.47;5030989;28;20044;-58
2022/05/30 00:28:41;;;;;;;3.55;1.77;;;;;;;9.45;76.35;99626.13;5045668;28;20048;-60
2022/05/30 00:31:10;;;;;;;6.03;1.95;;;;;;;9.43;76.39;99624.44;5033222;28;20390;-59
2022/05/30 00:33:35;;;;;;;5.28;1.75;;;;;;;9.42;76.89;99635.75;5034465;28;20042;-59
2022/05/30 00:36:03;;;;;;;3.47;1.85;;;;;;;9.40;76.91;99635.78;5016602;28;20549;-57
2022/05/30 00:38:29;;;;;;;10.38;2.08;;;;;;;9.38;76.94;99634.13;5028359;28;20049;-59
2022/05/30 00:40:55;;;;;;;4.05;1.88;;;;;;;9.37;77.33;99638.44;5039446;28;20055;-59
2022/05/30 00:43:37;;;;;;;5.43;2.25;;;;;;;9.34;77.42;99646.34;5030950;28;20045;-59
2022/05/30 00:46:10;;;;;;;9.05;2.05;;;;;;;9.32;78.00;99648.13;5036408;28;20564;-59
2022/05/30 00:48:44;;;;;;;3.00;1.88;;;;;;;9.15;77.89;99622.72;5043968;28;20135;-59
2022/05/30 00:51:14;;;;;;;5.78;1.90;;;;;;;9.29;78.13;99654.28;5023448;28;20048;-60
2022/05/30 00:53:42;;;;;;;4.45;2.33;;;;;;;9.30;78.94;99652.53;5033914;28;20110;-59
2022/05/30 00:56:09;;;;;;;4.10;2.25;;;;;;;9.28;79.44;99647.38;5036342;28;20095;-59
2022/05/30 00:58:44;;;;;;;4.10;2.40;;;;;;;9.26;79.15;99651.75;5043720;28;20049;-60
2022/05/30 01:01:10;;;;;;;11.80;2.67;;;;;;;9.25;79.29;99657.00;5035265;28;20415;-58
2022/05/30 01:06:30;;;;;;;3.22;2.33;;;;;;;9.24;79.64;99650.97;5033902;28;20476;-59
2022/05/30 01:08:56;;;;;;;4.93;2.47;;;;;;;9.23;79.51;99651.84;5018123;28;20049;-58
2022/05/30 01:11:23;;;;;;;12.93;3.50;;;;;;;9.24;79.79;99657.88;5024373;28;20102;-59
2022/05/30 01:13:48;;;;;;;3.33;2.13;;;;;;;9.23;79.45;99661.38;5034848;28;20508;-60
2022/05/30 01:16:14;;;;;;;3.95;2.55;;;;;;;9.21;79.82;99658.81;5045456;28;20128;-60
2022/05/30 01:18:47;;;;;;;5.07;2.63;;;;;;;9.15;79.86;99650.38;5044455;28;20045;-60
2022/05/30 01:21:34;;;;;;;6.05;2.25;;;;;;;9.21;79.90;99658.81;5026565;28;20037;-60
2022/05/30 01:24:46;;;;;;;3.53;2.10;;;;;;;9.22;79.56;99659.66;5033144;28;20045;-58
2022/05/30 01:27:33;;;;;;;3.35;2.00;;;;;;;9.16;79.65;99663.28;5024495;28;20040;-59
2022/05/30 01:30:05;;;;;;;3.97;2.13;;;;;;;9.20;79.97;99670.09;5050588;28;20045;-60
2022/05/30 01:32:31;;;;;;;3.97;2.13;;;;;;;9.20;80.41;99667.50;5048772;28;20067;-59
2022/05/30 01:34:58;;;;;;;4.00;2.13;;;;;;;9.21;80.04;99673.56;5036826;28;20056;-58
2022/05/30 01:37:31;;;;;;;6.15;3.08;;;;;;;9.19;80.16;99671.00;5012474;28;20038;-60
2022/05/30 01:39:58;;;;;;;3.38;2.30;;;;;;;9.21;80.51;99673.56;5063275;28;20436;-60
2022/05/30 01:42:23;;;;;;;4.22;2.60;;;;;;;9.22;80.52;99677.81;5036228;28;20528;-60
2022/05/30 01:44:49;;;;;;;5.90;2.22;;;;;;;9.15;80.01;99666.78;5050850;28;20082;-58
2022/05/30 01:47:17;;;;;;;6.38;2.20;;;;;;;9.25;80.29;99680.34;5040702;28;20045;-60
2022/05/30 01:49:46;;;;;;;6.05;2.55;;;;;;;9.25;80.48;99686.38;5027555;28;20042;-60
2022/05/30 01:52:12;;;;;;;3.97;2.20;;;;;;;9.27;80.31;99686.31;5031609;28;20061;-60
2022/05/30 01:54:38;;;;;;;2.85;2.33;;;;;;;9.17;80.30;99671.91;5048430;28;20037;-59
2022/05/30 01:57:23;;;;;;;4.13;2.47;;;;;;;9.28;80.01;99690.63;5031433;28;20045;-59
2022/05/30 02:00:10;;;;;;;4.75;2.38;;;;;;;9.31;80.11;99701.78;5030968;28;20037;-58
2022/05/30 02:02:49;;;;;;;4.50;2.33;;;;;;;9.32;80.16;99700.84;5008488;28;20076;-59
2022/05/30 02:05:15;;;;;;;5.90;2.53;;;;;;;9.35;80.25;99702.53;5027010;28;20568;-59
2022/05/30 02:07:42;;;;;;;4.00;2.40;;;;;;;9.36;80.02;99696.44;5032557;28;20166;-60
2022/05/30 02:10:09;;;;;;;3.95;2.47;;;;;;;9.40;80.16;99698.06;5048640;28;20037;-60
2022/05/30 02:12:37;;;;;;;7.10;2.40;;;;;;;9.41;79.65;99699.75;5031325;28;20052;-59
2022/05/30 02:15:22;;;;;;;3.67;2.17;;;;;;;9.43;80.29;99708.34;5032761;28;20564;-60
2022/05/30 02:17:52;;;;;;;3.83;2.35;;;;;;;9.45;79.91;99708.28;5030491;28;20406;-59
2022/05/30 02:20:18;;;;;;;3.75;2.28;;;;;;;9.39;79.56;99706.72;5028153;28;20038;-59
2022/05/30 02:22:45;;;;;;;4.15;2.33;;;;;;;9.51;79.37;99708.13;5030469;28;20097;-57
2022/05/30 02:25:12;;;;;;;4.15;2.33;;;;;;;9.42;78.96;99695.44;5011188;28;20402;-59
2022/05/30 02:27:41;;;;;;;3.95;2.45;;;;;;;9.57;78.98;99726.13;5053415;28;20056;-59
2022/05/30 02:30:10;;;;;;;3.17;2.13;;;;;;;9.60;78.31;99723.41;5032157;28;20041;-59
2022/05/30 02:32:36;;;;;;;4.47;2.53;;;;;;;9.63;78.05;99725.94;5035882;28;20045;-59
2022/05/30 02:37:48;;;;;;;4.07;2.25;;;;;;;9.69;77.68;99734.38;5046283;28;20076;-59
2022/05/30 02:40:32;;;;;;;5.60;2.50;;;;;;;9.72;77.64;99738.63;5042369;28;20045;-61
2022/05/30 02:43:16;;;;;;;6.45;2.33;;;;;;;9.75;76.78;99741.13;5032348;28;20037;-61
2022/05/30 02:45:44;;;;;;;7.00;2.33;;;;;;;9.77;76.99;99735.00;5027553;28;20053;-59
2022/05/30 02:48:12;;;;;;;4.85;2.53;;;;;;;9.82;76.72;99749.59;5035900;28;20044;-58
2022/05/30 02:51:04;;;;;;;3.22;2.30;;;;;;;9.88;76.21;99739.88;5031549;28;20525;-60
2022/05/30 02:53:30;;;;;;;6.32;2.25;;;;;;;9.85;75.74;99732.16;5031548;28;20400;-59
2022/05/30 02:56:15;;;;;;;5.38;2.20;;;;;;;9.96;75.84;99748.25;5031784;28;20045;-59
2022/05/30 02:58:42;;;;;;;7.35;2.63;;;;;;;10.01;75.76;99748.13;5063642;28;20071;-58
2022/05/30 03:01:09;;;;;;;4.68;2.40;;;;;;;9.99;75.10;99744.75;5038710;28;20080;-60
2022/05/30 03:03:35;;;;;;;5.70;2.38;;;;;;;10.08;75.14;99752.25;5024249;28;20038;-60
2022/05/30 03:06:02;;;;;;;5.03;2.08;;;;;;;10.04;74.62;99741.09;5014171;28;20493;-59
2022/05/30 03:08:27;;;;;;;6.85;2.75;;;;;;;10.17;74.20;99764.97;5031568;28;20128;-59
2022/05/30 03:11:25;;;;;;;3.58;1.85;;;;;;;10.22;74.04;99767.41;5030648;28;20045;-60
2022/05/30 03:13:52;;;;;;;5.20;2.60;;;;;;;10.26;73.63;99769.88;5018406;28;20049;-60
2022/05/30 03:16:18;;;;;;;4.85;2.53;;;;;;;10.30;73.72;99776.69;5025423;28;20132;-59
2022/05/30 03:18:45;;;;;;;5.07;2.58;;;;;;;10.34;73.54;99774.81;5040870;28;20049;-60
2022/05/30 03:21:12;;;;;;;3.75;2.00;;;;;;;10.31;73.49;99752.38;5034137;28;20061;-59
2022/05/30 03:23:38;;;;;;;4.28;2.28;;;;;;;10.43;72.69;99772.78;5031238;28;20048;-59
2022/05/30 03:26:09;;;;;;;5.20;2.38;;;;;;;10.48;72.56;99773.47;5062174;28;20072;-61
2022/05/30 03:28:35;;;;;;;6.00;2.30;;;;;;;10.52;71.89;99775.06;5029817;28;20045;-60
2022/05/30 03:31:02;;;;;;;5.90;2.63;;;;;;;10.59;71.78;99779.19;5063105;28;20060;-59
2022/05/30 03:33:31;;;;;;;4.07;2.22;;;;;;;10.62;71.49;99786.03;5029859;28;20053;-60
2022/05/30 03:35:58;;;;;;;3.97;2.28;;;;;;;10.68;70.97;99785.00;5033485;28;20037;-59
2022/05/30 03:38:44;;;;;;;5.28;2.65;;;;;;;10.73;70.76;99794.31;5020320;28;20091;-59
2022/05/30 03:41:28;;;;;;;4.03;1.95;;;;;;;10.78;71.18;99797.59;5041666;28;20071;-60
2022/05/30 03:44:03;;;;;;;7.47;2.53;;;;;;;10.83;70.75;99792.28;5031056;28;20539;-60
2022/05/30 03:46:31;;;;;;;8.60;2.60;;;;;;;10.90;70.45;99801.56;5032515;28;20040;-61
2022/05/30 03:48:57;;;;;;;8.68;2.90;;;;;;;10.96;70.47;99804.81;5049455;28;20068;-59
2022/05/30 03:51:23;;;;;;;5.43;2.20;;;;;;;10.96;70.33;99797.00;5039958;28;20084;-59
2022/05/30 03:53:51;;;;;;;4.18;2.10;;;;;;;11.09;70.03;99800.06;5030974;28;20449;-60
2022/05/30 03:56:18;;;;;;;5.03;2.30;;;;;;;11.04;69.55;99789.78;5034626;28;20072;-60
2022/05/30 03:58:44;;;;;;;5.22;2.45;;;;;;;11.20;69.49;99799.69;5012704;28;20049;-60
2022/05/30 04:01:10;;;;;;;3.38;2.22;;;;;;;11.27;69.90;99803.75;5044299;28;20051;-58
2022/05/30 04:03:37;;;;;;;6.78;2.42;;;;;;;11.34;68.70;99806.09;5024347;28;20041;-60
2022/05/30 04:06:04;;;;;;;4.07;1.92;;;;;;;11.41;68.91;99810.16;5014468;28;20041;-61
2022/05/30 04:08:30;;;;;;;7.05;2.33;;;;;;;11.47;68.20;99809.09;5013226;28;20045;-60
2022/05/30 04:11:35;;;;;;;3.85;2.03;;;;;;;11.56;67.47;99814.00;5011399;28;20052;-60
2022/05/30 04:14:19;;;;;;;5.32;2.00;;;;;;;11.62;66.75;99818.94;5028478;28;20041;-58
2022/05/30 04:16:51;;;;;;;3.55;2.05;;;;;;;11.70;66.51;99822.13;5029246;28;20103;-60
2022/05/30 04:19:17;;;;;;;4.45;1.92;;;;;;;11.76;65.99;99824.56;5049303;28;20421;-60
2022/05/30 04:21:44;;;;;;;3.67;2.15;;;;;;;11.84;65.27;99821.66;5017297;28;20843;-60
2022/05/30 04:24:12;;;;;;;4.77;2.30;;;;;;;11.82;65.63;99815.66;5034133;28;20045;-60
2022/05/30 04:26:50;;;;;;;8.95;2.50;;;;;;;12.01;64.97;99832.28;5042434;28;20053;-61
2022/05/30 04:29:16;;;;;;;5.00;2.00;;;;;;;11.94;64.21;99807.38;5039108;28;20041;-60
2022/05/30 04:32:13;;;;;;;6.55;2.00;;;;;;;12.19;63.87;99839.44;5058778;28;20436;-61
2022/05/30 04:34:39;;;;;;;2.60;1.70;;;;;;;12.26;63.36;99835.66;5056794;28;20093;-55
2022/05/30 04:37:05;;;;;;;3.88;1.70;;;;;;;12.37;64.02;99839.59;5048103;28;20117;-60
2022/05/30 04:39:31;;;;;;;4.93;1.75;;;;;;;12.46;63.90;99850.53;5050947;28;20049;-59
2022/05/30 04:42:15;;;;;;;4.68;2.22;;;;;;;12.55;63.83;99850.19;5038506;28;20115;-60
2022/05/30 04:45:07;;;;;;;5.00;2.15;;;;;;;12.66;62.57;99849.75;5062550;28;20040;-61
2022/05/30 04:47:52;;;;;;;9.77;2.10;;;;;;;12.74;62.11;99847.66;5039233;28;20049;-60
2022/05/30 04:50:19;;;;;;;5.88;1.88;;;;;;;12.82;62.00;99849.97;5035796;28;20104;-60
2022/05/30 04:52:45;;;;;;;4.90;1.92;;;;;;;12.80;61.40;99830.91;5037890;28;20045;-60
2022/05/30 04:55:43;;;;;;;4.27;1.97;;;;;;;12.99;60.94;99847.50;5005030;28;20053;-60
2022/05/30 04:58:15;;;;;;;6.90;2.30;;;;;;;13.06;60.49;99844.59;5028732;28;20423;-61
2022/05/30 05:01:08;;;;;;;3.88;1.83;;;;;;;13.06;60.12;99828.94;5020286;28;20559;-60
2022/05/30 05:03:37;;;;;;;5.30;1.98;;;;;;;13.22;59.96;99825.69;5036745;28;20602;-61
2022/05/30 05:06:12;;;;;;;5.10;2.13;;;;;;;13.28;60.12;99830.66;5019513;28;20063;-60
2022/05/30 05:08:50;;;;;;;5.35;2.25;;;;;;;13.36;60.24;99839.84;5047522;28;20148;-60
2022/05/30 05:11:39;;;;;;;7.30;2.10;;;;;;;13.35;59.87;99824.25;5033901;28;20154;-60
2022/05/30 05:14:24;;;;;;;6.38;2.20;;;;;;;13.56;59.66;99841.59;5041219;28;20064;-59
2022/05/30 05:17:09;;;;;;;5.65;1.98;;;;;;;13.64;58.86;99838.66;5034764;28;20413;-54
2022/05/30 05:19:41;;;;;;;5.28;1.90;;;;;;;13.65;58.13;99835.13;5065162;28;20566;-62
2022/05/30 05:22:12;;;;;;;2.53;1.67;;;;;;;13.81;58.07;99847.44;5043411;28;20044;-61
2022/05/30 05:24:38;;;;;;;2.30;1.88;;;;;;;13.91;58.11;99845.25;5001009;28;20530;-60
2022/05/30 05:27:17;;;;;;;8.10;2.25;;;;;;;13.95;57.92;99842.44;5025088;28;20033;-59
2022/05/30 05:29:43;;;;;;;3.83;2.08;;;;;;;14.13;57.41;99850.38;5021075;28;20045;-60
2022/05/30 05:32:10;;;;;;;4.72;1.77;;;;;;;14.22;56.61;99849.94;5038981;28;20393;-60
2022/05/30 05:34:36;;;;;;;5.30;1.88;;;;;;;14.30;56.28;99856.47;5019243;28;20057;-61
2022/05/30 05:37:02;;;;;;;4.15;1.60;;;;;;;14.41;56.34;99861.25;5053684;28;20041;-60
2022/05/30 05:39:32;;;;;;;3.22;1.70;;;;;;;14.50;55.56;99859.97;5031083;28;20041;-61
2022/05/30 05:42:01;;;;;;;5.28;1.83;;;;;;;14.62;54.95;99862.00;5016890;28;20041;-61
2022/05/30 05:44:27;;;;;;;4.45;1.90;;;;;;;14.70;54.64;99857.25;5046567;28;20406;-60
2022/05/30 05:46:56;;;;;;;2.67;1.50;;;;;;;14.74;54.59;99843.09;5013429;28;20395;-61
2022/05/30 05:49:23;;;;;;;5.15;1.50;;;;;;;14.94;53.92;99852.56;5040678;28;20037;-61
2022/05/30 05:51:55;;;;;;;4.85;1.75;;;;;;;15.02;52.85;99853.06;5048505;28;20047;-59
2022/05/30 05:54:23;;;;;;;1.92;1.27;;;;;;;15.14;53.02;99850.66;5034495;28;20040;-61
2022/05/30 05:56:52;;;;;;;3.22;1.63;;;;;;;15.24;52.64;99848.41;5050806;28;20068;-60
2022/05/30 05:59:26;;;;;;;4.68;1.77;;;;;;;15.40;52.20;99845.88;5051714;28;20075;-59
2022/05/30 06:01:51;;;;;;;4.07;1.55;;;;;;;15.46;51.71;99841.16;5035931;28;20077;-62
2022/05/30 06:04:18;;;;;;;2.65;1.55;;;;;;;15.55;52.11;99843.31;5029607;28;20087;-60
2022/05/30 06:07:03;;;;;;;5.10;2.00;;;;;;;15.72;52.47;99842.44;5044432;28;20050;-61
2022/05/30 06:09:35;;;;;;;4.28;1.58;;;;;;;15.83;51.70;99847.97;5031824;28;20045;-61
2022/05/30 06:12:25;;;;;;;2.30;1.50;;;;;;;15.94;50.40;99844.78;5031977;28;20588;-61
2022/05/30 06:14:50;;;;;;;5.55;1.75;;;;;;;16.07;50.26;99843.19;5041751;28;20049;-62
2022/05/30 06:17:16;;;;;;;5.13;1.30;;;;;;;16.24;50.20;99850.97;5030611;28;20057;-60
2022/05/30 06:19:42;;;;;;;6.00;2.00;;;;;;;16.44;49.90;99849.88;5030943;28;20057;-61
2022/05/30 06:22:10;;;;;;;3.00;1.60;;;;;;;16.66;49.51;99849.56;5031164;28;20044;-61
2022/05/30 06:24:38;;;;;;;3.92;0.82;;;;;;;16.80;44.98;99852.25;5031100;28;20045;-61
2022/05/30 06:27:07;;;;;;;5.45;1.45;;;;;;;16.87;44.85;99846.56;5020026;28;20132;-60
2022/05/30 06:29:59;;;;;;;1.63;1.10;;;;;;;17.12;45.00;99856.47;5050159;28;20060;-61
2022/05/30 06:32:26;;;;;;;2.88;1.13;;;;;;;17.40;44.54;99858.34;5030315;28;20598;-60
2022/05/30 06:34:59;;;;;;;4.45;1.33;;;;;;;18.01;42.91;99857.25;5013979;28;20566;-60
2022/05/30 06:37:25;;;;;;;2.85;1.13;;;;;;;18.78;39.39;99860.25;5022317;28;20160;-61
2022/05/30 06:39:52;;;;;;;2.25;1.05;;;;;;;19.53;37.18;99864.00;5030428;28;20119;-61
2022/05/30 06:42:29;;;;;;;3.63;1.17;;;;;;;20.86;36.54;99864.19;5042547;28;20045;-61
2022/05/30 06:45:13;;;;;;;3.55;1.23;;;;;;;21.43;34.26;99847.56;5029975;28;20048;-61
2022/05/30 06:47:58;;;;;;;2.83;1.02;;;;;;;22.28;33.68;99859.44;5030395;28;20044;-62
2022/05/30 06:50:42;;;;;;;2.20;1.30;;;;;;;23.75;31.94;99856.91;5050597;28;20047;-61
2022/05/30 06:53:11;;;;;;;2.22;1.20;;;;;;;25.13;29.84;99876.47;5030410;28;20536;-62
2022/05/30 06:55:37;;;;;;;4.18;1.40;;;;;;;26.17;27.86;99864.91;5026249;28;20045;-61
2022/05/30 06:58:14;;;;;;;5.90;2.60;;;;;;;27.48;27.42;99866.13;5034172;28;20041;-63
2022/05/30 07:00:46;;;;;;;2.63;1.80;;;;;;;28.88;26.24;99873.66;5046057;28;20132;-62
2022/05/30 07:03:31;;;;;;;2.38;1.48;;;;;;;29.97;24.33;99855.38;5031796;28;20063;-61
2022/05/30 07:06:17;;;;;;;4.25;1.40;;;;;;;30.52;22.17;99869.56;5025377;28;20112;-60
2022/05/30 07:09:04;;;;;;;;;;;;;;;30.71;21.00;99885.25;5020941;28;20044;-60
2022/05/30 07:11:49;;;;;;;1.60;1.10;;;;;;;30.68;21.19;99871.31;5034789;28;19908;-60
2022/05/30 07:14:17;;;;;;;2.15;1.15;;;;;;;31.98;19.84;99877.28;5033835;28;20043;-59
2022/05/30 07:16:44;;;;;;;2.90;1.23;;;;;;;32.66;18.60;99878.81;5030182;28;20057;-60
2022/05/30 07:19:10;;;;;;;2.10;1.15;;;;;;;33.02;18.56;99883.38;4993797;28;20049;-61
2022/05/30 07:21:47;;;;;;;3.80;1.40;;;;;;;33.12;18.49;99882.03;5028533;28;20136;-62
2022/05/30 07:24:31;;;;;;;3.03;1.40;;;;;;;33.55;17.45;99879.31;5022476;28;20041;-60
2022/05/30 07:27:16;;;;;;;2.33;1.23;;;;;;;32.58;17.65;99884.31;5023732;28;20033;-62
2022/05/30 07:30:00;;;;;;;1.35;1.15;;;;;;;32.36;17.94;99867.28;5030242;28;20421;-61
2022/05/30 07:32:44;;;;;;;2.20;1.23;;;;;;;32.91;17.64;99875.78;5025083;28;20056;-58
2022/05/30 07:35:29;;;;;;;1.75;1.30;;;;;;;33.16;17.91;99874.38;5029052;28;20042;-61
2022/05/30 07:38:13;;;;;;;2.28;1.20;;;;;;;32.87;18.00;99878.03;5022110;28;20041;-60
2022/05/30 07:41:32;;;;;;;2.20;1.40;;;;;;;33.41;17.34;99877.53;5035687;28;20064;-62
2022/05/30 07:44:21;;;;;;;6.82;1.60;;;;;;;34.45;16.98;99892.75;5023754;28;20077;-63
2022/05/30 07:47:16;;;;;;;4.90;1.27;;;;;;;32.47;18.79;99878.56;5019803;28;20045;-63
2022/05/30 07:49:50;;;;;;;4.33;1.50;;;;;;;31.20;19.47;99889.44;5012805;28;20424;-62
2022/05/30 07:52:32;;;;;;;1.67;1.30;;;;;;;33.30;17.88;99891.53;5027201;28;20276;-65
2022/05/30 07:55:10;;;;;;;;;;;;;;;34.75;16.31;99887.91;5029679;28;20045;-60
2022/05/30 07:57:52;;;;;;;4.60;1.47;;;;;;;35.58;16.06;99881.16;5029740;28;19967;-64
2022/05/30 08:00:22;;;;;;;1.83;1.30;;;;;;;36.02;15.55;99883.16;5018434;28;20037;-63
2022/05/30 08:02:52;;;;;;;1.45;1.10;;;;;;;37.03;14.76;99895.06;5009237;28;20104;-54
2022/05/30 08:05:20;;;;;;;3.30;1.50;;;;;;;37.89;14.47;99895.22;5034045;28;20033;-60
2022/05/30 08:08:07;;;;;;;3.80;1.30;;;;;;;36.98;14.14;99897.59;5033296;28;20044;-60
2022/05/30 08:11:04;;;;;;;2.22;1.42;;;;;;;36.76;14.26;99890.84;5029278;28;20414;-60
2022/05/30 08:13:38;;;;;;;2.17;1.30;;;;;;;36.76;13.38;99905.22;5027877;28;20045;-59
2022/05/30 08:16:07;;;;;;;2.63;1.10;;;;;;;35.96;13.82;99905.66;4996169;28;20095;-58
2022/05/30 08:18:35;;;;;;;1.70;1.17;;;;;;;35.42;13.78;99906.75;5043648;28;20513;-57
2022/05/30 08:21:04;;;;;;;3.50;1.00;;;;;;;36.61;13.87;99917.38;5030414;28;20096;-58
2022/05/30 08:23:33;;;;;;;2.90;1.42;;;;;;;37.95;12.58;99917.91;5030423;28;20041;-58
2022/05/30 08:26:01;;;;;;;3.22;1.33;;;;;;;38.04;12.43;99922.88;5014922;28;20037;-59
2022/05/30 08:28:33;;;;;;;3.67;1.38;;;;;;;37.79;12.87;99919.31;5027918;28;20037;-58
2022/05/30 08:31:00;;;;;;;4.20;1.27;;;;;;;38.47;12.68;99922.00;5028807;28;20045;-58
2022/05/30 08:33:44;;;;;;;2.83;1.40;;;;;;;37.93;13.09;99923.59;5026332;28;20643;-58
2022/05/30 08:36:25;;;;;;;2.78;1.33;;;;;;;36.65;13.54;99915.91;5060273;28;20041;-57
2022/05/30 08:41:46;;;;;;;3.10;1.40;;;;;;;34.74;14.62;99916.78;4996032;28;20116;-58
2022/05/30 08:41:46;;;;;;;3.72;1.35;;;;;;;35.01;14.37;99911.47;5028454;28;20065;-59
2022/05/30 08:44:32;;;;;;;1.45;1.23;;;;;;;37.17;13.86;99912.91;5028931;28;20084;-59
2022/05/30 08:47:33;;;;;;;3.63;2.10;;;;;;;38.90;13.14;99919.13;5027327;28;20112;-58
2022/05/30 08:50:11;;;;;;;3.53;1.58;;;;;;;39.30;12.39;99914.78;5026035;28;20053;-59
2022/05/30 08:53:07;;;;;;;2.05;1.55;;;;;;;39.25;11.89;99917.38;5026113;28;20128;-64
2022/05/30 08:55:57;;;;;;;1.92;1.60;;;;;;;38.80;12.96;99908.78;5028212;28;20128;-61
2022/05/30 08:59:11;;;;;;;2.65;1.55;;;;;;;36.54;13.49;99914.69;5005301;28;20038;-59
2022/05/30 09:02:00;;;;;;;4.05;1.80;;;;;;;36.39;13.61;99908.69;5036510;28;20092;-60
2022/05/30 09:04:55;;;;;;;4.68;1.05;;;;;;;36.93;13.77;99916.41;5025157;28;20073;-59
2022/05/30 09:07:29;;;;;;;2.20;1.10;;;;;;;34.00;15.69;99911.19;5044714;28;20057;-57
2022/05/30 09:10:03;;;;;;;3.67;1.20;;;;;;;31.06;17.75;99909.88;5028839;28;20043;-59
2022/05/30 09:12:38;;;;;;;2.17;1.25;;;;;;;29.28;19.59;99902.31;5015941;28;20038;-59
2022/05/30 09:15:43;;;;;;;2.47;1.48;;;;;;;32.02;17.39;99904.69;5026477;28;20049;-60
2022/05/30 09:18:33;;;;;;;2.47;1.42;;;;;;;35.35;15.34;99911.31;5031686;28;20535;-58
2022/05/30 09:21:02;;;;;;;1.77;1.23;;;;;;;35.01;14.96;99898.78;5031063;28;20068;-61
2022/05/30 09:23:28;;;;;;;3.38;1.73;;;;;;;34.91;14.86;99905.63;5048128;28;20059;-58
2022/05/30 09:26:07;;;;;;;2.13;1.80;;;;;;;34.62;15.09;99912.97;5029933;28;20432;-58
2022/05/30 09:29:04;;;;;;;1.38;1.13;;;;;;;34.67;14.89;99902.38;5023693;28;20054;-59
2022/05/30 09:31:36;;;;;;;5.23;1.70;;;;;;;34.04;15.95;99892.72;5031625;28;20037;-59
2022/05/30 09:34:43;;;;;;;4.30;1.90;;;;;;;32.98;16.76;99895.53;5031411;28;20057;-55
2022/05/30 09:37:34;;;;;;;4.63;1.90;;;;;;;33.99;15.78;99897.88;5027921;28;20048;-56
2022/05/30 09:40:18;;;;;;;4.13;1.77;;;;;;;36.10;14.36;99907.31;5017913;28;20042;-58
2022/05/30 09:43:06;;;;;;;5.45;1.95;;;;;;;37.64;13.79;99908.81;5031338;28;20053;-57
2022/05/30 09:45:33;;;;;;;3.40;1.80;;;;;;;38.58;12.77;99920.41;5032111;28;20041;-54
2022/05/30 09:48:19;;;;;;;3.33;1.80;;;;;;;39.46;12.32;99917.91;5031067;28;20517;-57
2022/05/30 09:51:12;;;;;;;6.32;1.55;;;;;;;37.99;13.44;99913.72;5030847;28;20046;-57
2022/05/30 09:53:41;;;;;;;2.75;1.80;;;;;;;35.04;15.08;99911.03;5015004;28;20042;-59
2022/05/30 09:56:13;;;;;;;3.92;1.80;;;;;;;34.37;15.23;99898.34;5030443;28;20049;-56
2022/05/30 09:58:46;;;;;;;3.83;2.22;;;;;;;36.04;14.37;99902.75;4998108;28;20062;-56
2022/05/30 10:01:35;;;;;;;3.22;1.60;;;;;;;37.70;12.85;99904.38;5016553;28;20139;-56
2022/05/30 10:04:41;;;;;;;3.40;1.70;;;;;;;38.17;12.51;99902.88;5010294;28;20049;-57
2022/05/30 10:07:17;;;;;;;3.03;1.20;;;;;;;36.40;13.32;99896.81;5033506;28;20041;-57
2022/05/30 10:09:57;;;;;;;1.33;1.10;;;;;;;33.88;15.44;99893.88;5045099;28;20037;-58
2022/05/30 10:12:32;;;;;;;1.70;1.60;;;;;;;34.56;14.92;99885.94;5028979;28;20069;-55
2022/05/30 10:14:58;;;;;;;3.95;1.80;;;;;;;36.77;14.18;99884.38;5030518;28;20052;-57
2022/05/30 10:17:35;;;;;;;4.00;2.45;;;;;;;38.55;13.02;99887.19;5031001;28;20642;-57
2022/05/30 10:20:11;;;;;;;2.97;2.15;;;;;;;38.26;12.31;99882.50;5028123;28;20049;-56
2022/05/30 10:30:12;;;;;;;1.58;1.40;;;;;;;37.52;12.46;99872.59;5029526;28;20504;-57
2022/05/30 10:33:15;;;;;;;4.15;2.22;;;;;;;34.58;14.47;99859.56;5011406;28;20118;-58
2022/05/30 10:35:53;;;;;;;3.42;1.73;;;;;;;34.37;14.62;99865.94;5027324;28;20043;-54
2022/05/30 10:38:53;;;;;;;1.80;1.40;;;;;;;34.38;14.57;99860.34;5014143;28;20538;-57
2022/05/30 10:41:40;;;;;;;2.50;1.30;;;;;;;34.14;14.87;99858.09;5040257;28;20053;-55
2022/05/30 10:44:15;;;;;;;2.00;1.10;;;;;;;32.44;15.86;99858.28;5030123;28;20071;-57
2022/05/30 10:47:07;;;;;;;3.50;1.70;;;;;;;33.40;16.07;99851.56;5027199;28;20132;-56
2022/05/30 10:49:50;;;;;;;2.33;1.60;;;;;;;35.38;14.45;99864.94;5013734;28;20124;-58
2022/05/30 10:52:24;;;;;;;3.13;2.50;;;;;;;37.20;14.09;99866.38;5011049;28;20048;-54
2022/05/30 10:55:02;;;;;;;2.72;1.70;;;;;;;37.77;12.73;99867.16;5029239;28;20033;-56
2022/05/30 10:57:35;;;;;;;3.22;1.90;;;;;;;37.10;12.94;99866.06;5044302;28;20103;-57
2022/05/30 11:00:07;;;;;;;5.00;2.10;;;;;;;36.30;13.11;99864.78;5061632;28;20049;-58
2022/05/30 11:02:46;;;;;;;2.63;1.70;;;;;;;36.01;12.96;99862.59;5012045;28;20047;-58
2022/05/30 11:05:41;;;;;;;2.13;1.90;;;;;;;36.70;12.54;99851.06;5027786;28;20068;-56
2022/05/30 11:08:14;;;;;;;2.35;1.88;;;;;;;36.50;12.45;99851.97;5045008;28;20047;-57
2022/05/30 11:10:47;;;;;;;2.95;1.80;;;;;;;35.89;12.76;99848.88;5013684;28;20103;-57
2022/05/30 11:13:40;;;;;;;2.85;1.90;;;;;;;36.52;12.89;99849.06;5027540;28;20490;-58
2022/05/30 11:16:23;;;;;;;3.17;1.60;;;;;;;36.57;13.33;99834.84;5029118;28;20424;-59
2022/05/30 11:19:47;;;;;;;2.42;1.52;;;;;;;37.59;13.00;99829.13;5028853;28;20049;-53
2022/05/30 11:22:38;;;;;;;4.65;1.98;;;;;;;37.47;12.65;99834.44;5049507;28;20398;-56
2022/05/30 11:25:06;;;;;;;3.83;1.73;;;;;;;37.74;12.22;99829.56;5030425;28;20127;-55
2022/05/30 11:27:59;;;;;;;4.50;1.80;;;;;;;38.37;12.32;99823.84;5026811;28;20069;-58
2022/05/30 11:30:50;;;;;;;3.05;2.05;;;;;;;39.02;11.96;99827.53;5026124;28;20123;-56
2022/05/30 11:33:53;;;;;;;3.92;1.77;;;;;;;39.29;12.00;99822.47;5026910;28;20041;-56
2022/05/30 11:36:46;;;;;;;2.40;1.80;;;;;;;39.66;11.55;99821.19;5027877;28;20107;-58
2022/05/30 11:39:31;;;;;;;5.93;3.70;;;;;;;40.00;11.67;99821.38;5028528;28;20095;-58
2022/05/30 11:42:20;;;;;;;3.72;2.00;;;;;;;39.92;11.55;99798.09;5029086;28;20037;-56
2022/05/30 11:44:59;;;;;;;2.20;1.95;;;;;;;40.17;11.49;99792.31;5011328;28;20488;-58
2022/05/30 11:47:36;;;;;;;6.53;2.00;;;;;;;39.51;11.24;99800.97;5027187;28;20034;-58
2022/05/30 11:50:09;;;;;;;1.92;1.77;;;;;;;38.61;11.20;99800.34;5011164;28;20573;-57
2022/05/30 11:52:43;;;;;;;4.05;1.80;;;;;;;37.56;12.09;99795.13;5028418;28;20048;-57
2022/05/30 11:55:23;;;;;;;1.95;1.67;;;;;;;37.88;12.04;99787.69;5027972;28;20037;-55
2022/05/30 11:58:26;;;;;;;5.28;1.92;;;;;;;38.10;12.13;99788.06;5059626;28;20037;-53
2022/05/30 12:00:53;;;;;;;3.03;1.83;;;;;;;36.75;12.69;99787.03;5033177;28;20045;-58
2022/05/30 12:04:03;;;;;;;4.25;1.70;;;;;;;36.10;12.68;99786.31;4994393;28;20504;-56
2022/05/30 12:06:34;;;;;;;2.95;1.65;;;;;;;36.59;12.52;99776.69;5029677;28;20057;-55
2022/05/30 12:09:18;;;;;;;3.80;1.70;;;;;;;37.52;12.96;99776.78;5030406;28;20041;-55
2022/05/30 12:12:27;;;;;;;4.30;1.70;;;;;;;38.27;12.48;99782.81;5026030;28;20107;-50
2022/05/30 12:15:15;;;;;;;2.53;2.00;;;;;;;38.66;12.38;99785.00;5018612;28;20402;-56
2022/05/30 12:24:28;;;;;;;4.30;1.70;;;;;;;37.39;12.05;99766.06;5028726;28;20128;-51
2022/05/30 12:26:59;;;;;;;4.63;1.50;;;;;;;36.37;12.73;99761.84;5026243;28;20037;-52
2022/05/30 12:29:39;;;;;;;2.70;1.55;;;;;;;36.11;13.42;99755.47;5027345;28;20436;-54
2022/05/30 12:32:21;;;;;;;3.15;1.77;;;;;;;36.24;13.50;99770.03;5028352;28;20719;-54
2022/05/30 12:35:18;;;;;;;1.77;1.42;;;;;;;36.08;13.35;99771.31;5029214;28;20041;-56
2022/05/30 12:38:06;;;;;;;3.53;1.30;;;;;;;35.54;13.87;99760.91;5028580;28;20045;-56
2022/05/30 12:40:38;;;;;;;3.92;1.83;;;;;;;34.86;14.77;99760.28;5029132;28;20118;-56